Time;durP1;ratioP1;P1;durP2;ratioP2;P2;SDS_P1;SDS_P2;PMS_P1;PMS_P2;Temp;Humidity;BMP_temperature;BMP_pressure;BME280_temperature;BME280_humidity;BME280_pressure;Samples;Min_cycle;Max_cycle;Signal;HPM_P1;HPM_P2
2022/10/07 00:00:47;;;;;;;;;;;11.10;99.90;;;;;;5076845;28;19916;-73
2022/10/07 00:03:13;;;;;;;;;;;11.00;99.90;;;;;;5076651;28;19909;-75
2022/10/07 00:05:39;;;;;;;;;;;11.00;99.90;;;;;;5075308;28;19909;-75
2022/10/07 00:08:04;;;;;;;;;;;11.10;99.90;;;;;;5076565;28;19954;-74
2022/10/07 00:10:30;;;;;;;;;;;11.00;99.90;;;;;;5076734;28;19951;-74
2022/10/07 00:12:57;;;;;;;;;;;10.90;99.90;;;;;;5074850;28;19957;-77
2022/10/07 00:15:23;;;;;;;;;;;10.80;99.90;;;;;;5076508;28;20376;-72
2022/10/07 00:17:49;;;;;;;;;;;10.70;99.90;;;;;;5076392;28;19916;-72
2022/10/07 00:20:14;;;;;;;;;;;10.50;99.90;;;;;;5076351;28;19908;-73
2022/10/07 00:22:40;;;;;;;;;;;10.30;99.90;;;;;;5076654;28;19915;-74
2022/10/07 00:25:05;;;;;;;;;;;10.20;99.90;;;;;;5074964;28;20007;-73
2022/10/07 00:27:31;;;;;;;;;;;10.30;99.90;;;;;;5074949;28;20310;-75
2022/10/07 00:29:56;;;;;;;;;;;10.40;99.90;;;;;;5076152;28;20322;-75
2022/10/07 00:32:22;;;;;;;;;;;10.40;99.90;;;;;;5076166;28;19915;-74
2022/10/07 00:34:47;;;;;;;;;;;10.40;99.90;;;;;;5076869;28;19919;-74
2022/10/07 00:37:13;;;;;;;;;;;10.40;99.90;;;;;;5076026;28;19954;-74
2022/10/07 00:39:39;;;;;;;;;;;10.60;99.90;;;;;;5075980;28;19908;-74
2022/10/07 00:42:04;;;;;;;;;;;10.60;99.90;;;;;;5076329;28;19912;-74
2022/10/07 00:44:30;;;;;;;;;;;10.60;99.90;;;;;;5076164;28;19908;-77
2022/10/07 00:47:03;;;;;;;;;;;10.70;99.90;;;;;;5075961;28;19943;-76
2022/10/07 00:49:30;;;;;;;;;;;10.70;99.90;;;;;;5075613;28;19928;-74
2022/10/07 00:51:56;;;;;;;;;;;10.70;99.90;;;;;;5076172;28;19961;-76
2022/10/07 00:54:22;;;;;;;;;;;10.60;99.90;;;;;;5074468;28;19919;-77
2022/10/07 00:56:49;;;;;;;;;;;10.60;99.90;;;;;;5075770;28;19909;-74
2022/10/07 00:59:15;;;;;;;;;;;10.50;99.90;;;;;;5075701;28;19909;-76
2022/10/07 01:01:41;;;;;;;;;;;10.50;99.90;;;;;;5075811;28;19958;-78
2022/10/07 01:04:10;;;;;;;;;;;10.40;99.90;;;;;;5075554;28;19912;-75
2022/10/07 01:06:38;;;;;;;;;;;10.40;99.90;;;;;;5075780;28;19953;-77
2022/10/07 01:09:04;;;;;;;;;;;10.40;99.90;;;;;;5075283;28;20284;-76
2022/10/07 01:11:39;;;;;;;;;;;10.50;99.90;;;;;;5075463;28;19908;-76
2022/10/07 01:14:18;;;;;;;;;;;10.40;99.90;;;;;;5075334;28;20338;-75
2022/10/07 01:16:57;;;;;;;;;;;10.30;99.90;;;;;;5075374;28;19909;-76
2022/10/07 01:19:26;;;;;;;;;;;10.10;99.90;;;;;;5075519;28;19975;-77
2022/10/07 01:22:15;;;;;;;;;;;10.00;99.90;;;;;;5075275;28;19955;-76
2022/10/07 01:24:49;;;;;;;;;;;10.10;99.90;;;;;;5075663;28;19944;-77
2022/10/07 01:27:16;;;;;;;;;;;10.20;99.90;;;;;;5075151;28;20363;-77
2022/10/07 01:29:54;;;;;;;;;;;10.20;99.90;;;;;;5075191;28;19994;-77
2022/10/07 01:32:26;;;;;;;;;;;10.10;99.90;;;;;;5075281;28;19992;-76
2022/10/07 01:34:53;;;;;;;;;;;10.00;99.90;;;;;;5075474;28;19912;-76
2022/10/07 01:37:21;;;;;;;;;;;10.00;99.90;;;;;;5075120;28;19909;-75
2022/10/07 01:39:48;;;;;;;;;;;10.00;99.90;;;;;;5074921;28;20439;-77
2022/10/07 01:42:14;;;;;;;;;;;9.90;99.90;;;;;;5074822;28;19909;-75
2022/10/07 01:44:41;;;;;;;;;;;9.90;99.90;;;;;;5074929;28;19916;-75
2022/10/07 01:47:06;;;;;;;;;;;9.80;99.90;;;;;;5074743;28;19912;-77
2022/10/07 01:49:33;;;;;;;;;;;9.90;99.90;;;;;;5074366;28;19921;-77
2022/10/07 01:52:09;;;;;;;;;;;9.90;99.90;;;;;;5074717;28;19915;-76
2022/10/07 01:54:53;;;;;;;;;;;9.90;99.90;;;;;;5074555;28;19916;-76
2022/10/07 01:57:25;;;;;;;;;;;9.90;99.90;;;;;;5074674;28;19909;-76
2022/10/07 02:00:04;;;;;;;;;;;9.80;99.90;;;;;;5074656;28;19908;-78
2022/10/07 02:02:38;;;;;;;;;;;9.80;99.90;;;;;;5074853;28;20287;-76
2022/10/07 02:05:08;;;;;;;;;;;9.70;99.90;;;;;;5074393;28;19916;-75
2022/10/07 02:07:33;;;;;;;;;;;9.60;99.90;;;;;;5074372;28;19908;-77
2022/10/07 02:10:16;;;;;;;;;;;9.60;99.90;;;;;;5074307;28;20280;-76
2022/10/07 02:12:46;;;;;;;;;;;9.50;99.90;;;;;;5074973;28;19908;-76
2022/10/07 02:15:24;;;;;;;;;;;9.50;99.90;;;;;;5074413;28;19962;-76
2022/10/07 02:17:52;;;;;;;;;;;9.40;99.90;;;;;;5074194;28;19909;-78
2022/10/07 02:20:20;;;;;;;;;;;9.50;99.90;;;;;;5072588;28;19908;-75
2022/10/07 02:22:46;;;;;;;;;;;9.60;99.90;;;;;;5073769;28;19922;-74
2022/10/07 02:25:12;;;;;;;;;;;9.50;99.90;;;;;;5074157;28;19908;-74
2022/10/07 02:27:39;;;;;;;;;;;9.50;99.90;;;;;;5074131;28;19962;-76
2022/10/07 02:30:08;;;;;;;;;;;9.40;99.90;;;;;;5074045;28;19916;-75
2022/10/07 02:32:35;;;;;;;;;;;9.40;99.90;;;;;;5074188;28;20284;-76
2022/10/07 02:35:03;;;;;;;;;;;9.40;99.90;;;;;;5074530;28;20330;-74
2022/10/07 02:37:31;;;;;;;;;;;9.30;99.90;;;;;;5074152;28;19908;-77
2022/10/07 02:39:57;;;;;;;;;;;9.30;99.90;;;;;;5073883;28;20021;-77
2022/10/07 02:42:38;;;;;;;;;;;9.30;99.90;;;;;;5073895;28;19954;-77
2022/10/07 02:45:12;;;;;;;;;;;9.20;99.90;;;;;;5073825;28;19912;-77
2022/10/07 02:47:53;;;;;;;;;;;9.20;99.90;;;;;;5073578;28;20379;-77
2022/10/07 02:50:22;;;;;;;;;;;9.20;99.90;;;;;;5073762;28;20011;-74
2022/10/07 02:52:49;;;;;;;;;;;9.10;99.90;;;;;;5073627;28;19909;-76
2022/10/07 02:55:16;;;;;;;;;;;8.80;99.90;;;;;;5073668;28;19909;-78
2022/10/07 02:57:46;;;;;;;;;;;8.80;99.90;;;;;;5073721;28;19931;-77
2022/10/07 03:00:12;;;;;;;;;;;9.00;99.90;;;;;;5073662;28;19909;-77
2022/10/07 03:02:43;;;;;;;;;;;9.00;99.90;;;;;;5073643;28;20276;-74
2022/10/07 03:05:10;;;;;;;;;;;9.00;99.90;;;;;;5073573;28;19908;-77
2022/10/07 03:07:35;;;;;;;;;;;9.00;99.90;;;;;;5073758;28;19943;-75
2022/10/07 03:10:02;;;;;;;;;;;9.10;99.90;;;;;;5073559;28;20307;-75
2022/10/07 03:12:28;;;;;;;;;;;9.10;99.90;;;;;;5074045;28;19919;-74
2022/10/07 03:14:53;;;;;;;;;;;9.00;99.90;;;;;;5073585;28;20055;-76
2022/10/07 03:17:19;;;;;;;;;;;9.00;99.90;;;;;;5073479;28;19952;-77
2022/10/07 03:19:44;;;;;;;;;;;8.90;99.90;;;;;;5073447;28;19934;-75
2022/10/07 03:22:10;;;;;;;;;;;8.80;99.90;;;;;;5073498;28;20315;-75
2022/10/07 03:24:36;;;;;;;;;;;8.70;99.90;;;;;;5073390;28;19908;-77
2022/10/07 03:27:04;;;;;;;;;;;8.80;99.90;;;;;;5073387;28;19944;-77
2022/10/07 03:29:31;;;;;;;;;;;8.90;99.90;;;;;;5072041;28;20355;-76
2022/10/07 03:31:57;;;;;;;;;;;8.90;99.90;;;;;;5073733;28;19970;-77
2022/10/07 03:34:22;;;;;;;;;;;8.80;99.90;;;;;;5077254;28;19959;-76
2022/10/07 03:36:48;;;;;;;;;;;8.80;99.90;;;;;;5078144;28;19909;-76
2022/10/07 03:39:14;;;;;;;;;;;8.80;99.90;;;;;;5077257;28;19961;-74
2022/10/07 03:41:41;;;;;;;;;;;8.80;99.90;;;;;;5077368;28;19908;-76
2022/10/07 03:44:06;;;;;;;;;;;8.80;99.90;;;;;;5077088;28;20428;-75
2022/10/07 03:46:32;;;;;;;;;;;8.80;99.90;;;;;;5076951;28;19947;-75
2022/10/07 03:48:57;;;;;;;;;;;8.60;99.90;;;;;;5076806;28;19921;-77
2022/10/07 03:51:23;;;;;;;;;;;8.40;99.90;;;;;;5077048;28;19952;-75
2022/10/07 03:53:48;;;;;;;;;;;8.30;99.90;;;;;;5076878;28;19943;-74
2022/10/07 03:56:14;;;;;;;;;;;8.30;99.90;;;;;;5092529;28;19908;-77
2022/10/07 03:58:40;;;;;;;;;;;8.30;99.90;;;;;;5076810;28;19908;-76
2022/10/07 04:01:06;;;;;;;;;;;8.40;99.90;;;;;;5076771;28;19912;-77
2022/10/07 04:03:32;;;;;;;;;;;8.50;99.90;;;;;;5077021;28;19909;-75
2022/10/07 04:05:59;;;;;;;;;;;8.50;99.90;;;;;;5075358;28;19915;-74
2022/10/07 04:08:27;;;;;;;;;;;8.60;99.90;;;;;;5076663;28;20375;-77
2022/10/07 04:10:52;;;;;;;;;;;8.60;99.90;;;;;;5076680;28;20001;-75
2022/10/07 04:13:18;;;;;;;;;;;8.50;99.90;;;;;;5076519;28;19955;-76
2022/10/07 04:15:44;;;;;;;;;;;8.40;99.90;;;;;;5076641;28;19947;-77
2022/10/07 04:18:09;;;;;;;;;;;8.40;99.90;;;;;;5076489;28;20011;-76
2022/10/07 04:20:36;;;;;;;;;;;8.40;99.90;;;;;;5076631;28;19908;-76
2022/10/07 04:23:02;;;;;;;;;;;8.20;99.90;;;;;;5076588;28;19909;-75
2022/10/07 04:25:33;;;;;;;;;;;8.30;99.90;;;;;;5076336;28;20360;-76
2022/10/07 04:28:00;;;;;;;;;;;8.30;99.90;;;;;;5076412;28;19909;-77
2022/10/07 04:30:27;;;;;;;;;;;8.30;99.90;;;;;;5076219;28;19908;-75
2022/10/07 04:32:53;;;;;;;;;;;8.30;99.90;;;;;;5076574;28;19999;-75
2022/10/07 04:35:20;;;;;;;;;;;8.40;99.90;;;;;;5076690;28;19947;-75
2022/10/07 04:37:51;;;;;;;;;;;8.50;99.90;;;;;;5074885;28;19908;-75
2022/10/07 04:40:18;;;;;;;;;;;8.40;99.90;;;;;;5076125;28;19987;-76
2022/10/07 04:45:27;;;;;;;;;;;8.40;99.90;;;;;;5075181;28;20379;-77
2022/10/07 04:47:53;;;;;;;;;;;8.30;99.90;;;;;;5075756;28;19920;-75
2022/10/07 04:50:18;;;;;;;;;;;8.30;99.90;;;;;;5075981;28;19915;-76
2022/10/07 04:52:45;;;;;;;;;;;8.30;99.90;;;;;;5075863;28;19916;-77
2022/10/07 04:55:11;;;;;;;;;;;8.30;99.90;;;;;;5075741;28;19913;-74
2022/10/07 04:57:37;;;;;;;;;;;8.20;99.90;;;;;;5075880;28;19912;-76
2022/10/07 05:00:04;;;;;;;;;;;8.10;99.90;;;;;;5075663;28;19909;-77
2022/10/07 05:02:29;;;;;;;;;;;7.90;99.90;;;;;;5075870;28;19917;-76
2022/10/07 05:04:55;;;;;;;;;;;8.00;99.90;;;;;;5075752;28;20280;-74
2022/10/07 05:07:20;;;;;;;;;;;8.10;99.90;;;;;;5075806;28;20051;-75
2022/10/07 05:09:46;;;;;;;;;;;8.20;99.90;;;;;;5074251;28;19927;-77
2022/10/07 05:12:11;;;;;;;;;;;8.20;99.90;;;;;;5075516;28;19917;-75
2022/10/07 05:14:40;;;;;;;;;;;8.10;99.90;;;;;;5075536;28;20276;-75
2022/10/07 05:17:06;;;;;;;;;;;8.00;99.90;;;;;;5075391;28;20342;-76
2022/10/07 05:19:32;;;;;;;;;;;7.90;99.90;;;;;;5075297;28;19908;-77
2022/10/07 05:21:58;;;;;;;;;;;7.50;99.90;;;;;;5075333;28;19912;-76
2022/10/07 05:24:23;;;;;;;;;;;7.60;99.90;;;;;;5075266;28;19954;-75
2022/10/07 05:26:49;;;;;;;;;;;7.40;99.90;;;;;;5075142;28;19915;-75
2022/10/07 05:29:15;;;;;;;;;;;7.10;99.90;;;;;;5075141;28;19943;-75
2022/10/07 05:31:41;;;;;;;;;;;7.10;99.90;;;;;;5075210;28;19912;-76
2022/10/07 05:34:06;;;;;;;;;;;7.10;99.90;;;;;;5075178;28;20379;-73
2022/10/07 05:36:33;;;;;;;;;;;7.00;99.90;;;;;;5075567;28;19908;-77
2022/10/07 05:38:58;;;;;;;;;;;7.30;99.90;;;;;;5074955;28;19945;-75
2022/10/07 05:41:26;;;;;;;;;;;7.60;99.90;;;;;;5074939;28;19956;-77
2022/10/07 05:43:52;;;;;;;;;;;7.60;99.90;;;;;;5073532;28;20288;-76
2022/10/07 05:46:22;;;;;;;;;;;7.80;99.90;;;;;;5074701;28;19912;-77
2022/10/07 05:48:49;;;;;;;;;;;7.90;99.90;;;;;;5074677;28;19931;-74
2022/10/07 05:51:16;;;;;;;;;;;7.90;99.90;;;;;;5074566;28;19908;-75
2022/10/07 05:53:41;;;;;;;;;;;7.80;99.90;;;;;;5074611;28;20000;-75
2022/10/07 05:56:08;;;;;;;;;;;7.80;99.90;;;;;;5073601;28;20336;-76
2022/10/07 05:58:37;;;;;;;;;;;7.80;99.90;;;;;;5074580;28;19908;-76
2022/10/07 06:01:05;;;;;;;;;;;7.80;99.90;;;;;;5074556;28;19908;-75
2022/10/07 06:03:30;;;;;;;;;;;7.80;99.90;;;;;;5074454;28;19954;-75
2022/10/07 06:05:58;;;;;;;;;;;7.80;99.90;;;;;;5074399;28;19908;-77
2022/10/07 06:08:23;;;;;;;;;;;7.80;99.90;;;;;;5074427;28;19998;-78
2022/10/07 06:13:34;;;;;;;;;;;7.80;99.90;;;;;;5074154;28;20338;-74
2022/10/07 06:16:00;;;;;;;;;;;7.80;99.90;;;;;;5074376;28;19908;-76
2022/10/07 06:18:26;;;;;;;;;;;7.80;99.90;;;;;;5074276;28;19915;-78
2022/10/07 06:21:01;;;;;;;;;;;7.80;99.90;;;;;;5074136;28;20312;-75
2022/10/07 06:23:27;;;;;;;;;;;7.80;99.90;;;;;;5074351;28;20427;-76
2022/10/07 06:25:57;;;;;;;;;;;7.70;99.90;;;;;;5074069;28;19908;-76
2022/10/07 06:28:22;;;;;;;;;;;7.80;99.90;;;;;;5074120;28;19909;-77
2022/10/07 06:30:49;;;;;;;;;;;7.70;99.90;;;;;;5074035;28;20276;-76
2022/10/07 06:33:15;;;;;;;;;;;7.80;99.90;;;;;;5074254;28;20356;-78
2022/10/07 06:35:41;;;;;;;;;;;7.90;99.90;;;;;;5074480;28;19914;-78
2022/10/07 06:38:06;;;;;;;;;;;8.00;99.90;;;;;;5073941;28;19912;-76
2022/10/07 06:40:32;;;;;;;;;;;8.10;99.90;;;;;;5073847;28;20413;-77
2022/10/07 06:42:57;;;;;;;;;;;8.20;99.90;;;;;;5074221;28;19975;-76
2022/10/07 06:45:23;;;;;;;;;;;8.10;99.90;;;;;;5074051;28;19938;-76
2022/10/07 06:47:50;;;;;;;;;;;8.10;99.90;;;;;;5073675;28;20292;-77
2022/10/07 06:50:16;;;;;;;;;;;8.30;99.90;;;;;;5073941;28;19948;-77
2022/10/07 06:52:41;;;;;;;;;;;8.30;99.90;;;;;;5073777;28;19915;-74
2022/10/07 06:55:07;;;;;;;;;;;8.50;99.90;;;;;;5073689;28;19920;-77
2022/10/07 06:57:32;;;;;;;;;;;8.70;99.90;;;;;;5074035;28;20372;-75
2022/10/07 06:59:59;;;;;;;;;;;9.10;99.90;;;;;;5073961;28;19908;-75
2022/10/07 07:02:26;;;;;;;;;;;9.40;99.90;;;;;;5072388;28;19916;-74
2022/10/07 07:04:53;;;;;;;;;;;9.70;99.90;;;;;;5073660;28;20284;-75
2022/10/07 07:07:20;;;;;;;;;;;10.00;99.90;;;;;;5073380;28;19909;-77
2022/10/07 07:09:46;;;;;;;;;;;10.20;99.90;;;;;;5072261;28;19954;-76
2022/10/07 07:12:11;;;;;;;;;;;10.50;99.90;;;;;;5073661;28;19908;-76
2022/10/07 07:14:37;;;;;;;;;;;10.80;99.90;;;;;;5073430;28;20348;-78
2022/10/07 07:17:03;;;;;;;;;;;11.30;99.90;;;;;;5073429;28;19908;-75
2022/10/07 07:19:30;;;;;;;;;;;11.90;99.90;;;;;;5073143;28;19944;-76
2022/10/07 07:21:55;;;;;;;;;;;12.40;99.90;;;;;;5072156;28;19959;-76
2022/10/07 07:24:21;;;;;;;;;;;12.80;99.90;;;;;;5073501;28;19912;-77
2022/10/07 07:26:47;;;;;;;;;;;13.20;99.90;;;;;;5073419;28;19916;-75
2022/10/07 07:29:15;;;;;;;;;;;13.50;97.00;;;;;;5073374;28;19909;-75
2022/10/07 07:31:41;;;;;;;;;;;13.80;99.40;;;;;;5073538;28;19909;-76
2022/10/07 07:34:10;;;;;;;;;;;14.40;99.70;;;;;;5073419;28;19922;-76
2022/10/07 07:36:36;;;;;;;;;;;14.90;99.70;;;;;;5073727;28;19991;-77
2022/10/07 07:39:07;;;;;;;;;;;15.40;97.50;;;;;;5071998;28;19951;-75
2022/10/07 07:41:34;;;;;;;;;;;15.60;95.80;;;;;;5072600;28;19912;-78
2022/10/07 07:44:01;;;;;;;;;;;16.00;93.80;;;;;;5073240;28;19916;-76
2022/10/07 07:46:28;;;;;;;;;;;16.40;92.40;;;;;;5073213;28;19916;-75
2022/10/07 07:48:54;;;;;;;;;;;16.80;92.50;;;;;;5073116;28;19920;-74
2022/10/07 07:51:21;;;;;;;;;;;17.20;91.90;;;;;;5073161;28;20424;-74
2022/10/07 07:53:48;;;;;;;;;;;17.60;90.70;;;;;;5073234;28;19917;-76
2022/10/07 07:56:14;;;;;;;;;;;17.90;88.10;;;;;;5073082;28;19915;-76
2022/10/07 07:58:40;;;;;;;;;;;18.40;86.00;;;;;;5073318;28;19908;-75
2022/10/07 08:01:10;;;;;;;;;;;18.70;83.90;;;;;;5073115;28;19915;-75
2022/10/07 08:03:36;;;;;;;;;;;19.10;82.40;;;;;;5073300;28;19916;-75
2022/10/07 08:06:03;;;;;;;;;;;19.10;80.40;;;;;;5073136;28;19909;-73
2022/10/07 08:08:29;;;;;;;;;;;19.20;82.10;;;;;;5072980;28;19909;-73
2022/10/07 08:10:54;;;;;;;;;;;19.60;81.30;;;;;;5073011;28;20372;-74
2022/10/07 08:13:20;;;;;;;;;;;20.10;79.70;;;;;;5072992;28;19920;-75
2022/10/07 08:15:46;;;;;;;;;;;20.40;78.60;;;;;;5073489;28;19952;-74
2022/10/07 08:18:11;;;;;;;;;;;20.60;77.10;;;;;;5072933;28;20261;-75
2022/10/07 08:20:37;;;;;;;;;;;20.80;77.20;;;;;;5075751;28;19973;-74
2022/10/07 08:23:03;;;;;;;;;;;21.60;76.40;;;;;;5076476;28;19917;-75
2022/10/07 08:25:28;;;;;;;;;;;22.00;72.00;;;;;;5076515;28;19915;-74
2022/10/07 08:27:54;;;;;;;;;;;21.70;72.70;;;;;;5076268;28;19908;-74
2022/10/07 08:30:19;;;;;;;;;;;22.30;71.90;;;;;;5076293;28;19908;-76
2022/10/07 08:32:45;;;;;;;;;;;22.60;70.60;;;;;;5076362;28;20315;-75
2022/10/07 08:35:11;;;;;;;;;;;23.20;69.50;;;;;;5076213;28;19913;-76
2022/10/07 08:37:36;;;;;;;;;;;23.50;68.20;;;;;;5076736;28;19919;-75
2022/10/07 08:40:02;;;;;;;;;;;24.00;67.30;;;;;;5075215;28;19908;-76
2022/10/07 08:42:37;;;;;;;;;;;23.40;66.60;;;;;;5074937;28;19948;-73
2022/10/07 08:45:04;;;;;;;;;;;24.10;67.50;;;;;;5074556;28;19909;-75
2022/10/07 08:47:37;;;;;;;;;;;25.50;65.20;;;;;;5075763;28;20279;-75
2022/10/07 08:50:21;;;;;;;;;;;25.90;62.40;;;;;;5075973;28;20415;-75
2022/10/07 08:52:52;;;;;;;;;;;26.90;61.50;;;;;;5075896;28;19913;-76
2022/10/07 08:55:36;;;;;;;;;;;28.30;59.10;;;;;;5075735;28;20359;-76
2022/10/07 08:58:05;;;;;;;;;;;28.40;56.30;;;;;;5075856;28;19936;-77
2022/10/07 09:00:39;;;;;;;;;;;29.40;56.50;;;;;;5075833;28;19912;-76
2022/10/07 09:03:09;;;;;;;;;;;30.60;53.60;;;;;;5075692;28;19971;-76
2022/10/07 09:05:40;;;;;;;;;;;30.80;50.90;;;;;;5075925;28;20011;-75
2022/10/07 09:08:10;;;;;;;;;;;31.50;50.60;;;;;;5074119;28;20300;-78
2022/10/07 09:10:39;;;;;;;;;;;31.70;48.70;;;;;;5075635;28;19913;-76
2022/10/07 09:13:10;;;;;;;;;;;32.10;48.70;;;;;;5075388;28;20347;-77
2022/10/07 09:15:40;;;;;;;;;;;32.70;48.30;;;;;;5075854;28;19952;-77
2022/10/07 09:18:18;;;;;;;;;;;33.20;47.50;;;;;;5075497;28;19939;-77
2022/10/07 09:20:46;;;;;;;;;;;33.60;47.10;;;;;;5073792;28;20372;-76
2022/10/07 09:23:14;;;;;;;;;;;34.10;45.30;;;;;;5075305;28;20299;-75
2022/10/07 09:25:40;;;;;;;;;;;33.80;45.60;;;;;;5075457;28;20265;-77
2022/10/07 09:28:13;;;;;;;;;;;34.30;45.30;;;;;;5075513;28;19920;-75
2022/10/07 09:30:41;;;;;;;;;;;34.60;44.70;;;;;;5074903;28;19958;-78
2022/10/07 09:33:17;;;;;;;;;;;35.30;44.00;;;;;;5075039;28;19961;-77
2022/10/07 09:35:49;;;;;;;;;;;35.00;43.40;;;;;;5075695;28;20318;-78
2022/10/07 09:38:15;;;;;;;;;;;35.40;44.00;;;;;;5075683;28;19948;-77
2022/10/07 09:43:30;;;;;;;;;;;33.30;43.80;;;;;;5074914;28;19917;-78
2022/10/07 09:45:56;;;;;;;;;;;32.30;45.40;;;;;;5074723;28;19908;-79
2022/10/07 09:48:24;;;;;;;;;;;34.10;44.70;;;;;;5074870;28;19920;-78
2022/10/07 09:50:50;;;;;;;;;;;35.50;43.80;;;;;;5074874;28;20046;-79
2022/10/07 09:53:21;;;;;;;;;;;35.60;42.30;;;;;;5075410;28;19951;-78
2022/10/07 09:55:48;;;;;;;;;;;34.50;43.70;;;;;;5074612;28;20502;-77
2022/10/07 09:58:18;;;;;;;;;;;35.30;41.30;;;;;;5074733;28;19916;-78
2022/10/07 10:00:48;;;;;;;;;;;34.10;42.20;;;;;;5074626;28;20336;-76
2022/10/07 10:03:14;;;;;;;;;;;34.40;43.10;;;;;;5074539;28;20478;-78
2022/10/07 10:05:49;;;;;;;;;;;36.30;42.00;;;;;;5074361;28;19944;-76
2022/10/07 10:08:15;;;;;;;;;;;36.30;41.40;;;;;;5074503;28;19951;-79
2022/10/07 10:10:47;;;;;;;;;;;37.50;41.10;;;;;;5074364;28;19962;-78
2022/10/07 10:13:22;;;;;;;;;;;37.40;39.50;;;;;;5074368;28;19908;-79
2022/10/07 10:15:48;;;;;;;;;;;35.90;40.50;;;;;;5074788;28;19966;-79
2022/10/07 10:18:25;;;;;;;;;;;36.00;40.60;;;;;;5074177;28;19908;-75
2022/10/07 10:20:51;;;;;;;;;;;36.20;40.20;;;;;;5074311;28;19908;-77
2022/10/07 10:23:34;;;;;;;;;;;36.40;40.00;;;;;;5074215;28;20342;-75
2022/10/07 10:26:24;;;;;;;;;;;37.10;40.60;;;;;;5074236;28;20364;-76
2022/10/07 10:29:02;;;;;;;;;;;38.00;39.10;;;;;;5074075;28;19908;-75
2022/10/07 10:31:36;;;;;;;;;;;38.20;39.70;;;;;;5074329;28;19912;-78
2022/10/07 10:34:20;;;;;;;;;;;39.20;39.20;;;;;;5074347;28;19942;-76
2022/10/07 10:36:51;;;;;;;;;;;37.80;41.00;;;;;;5074593;28;19923;-78
2022/10/07 10:39:19;;;;;;;;;;;39.90;39.40;;;;;;5074192;28;20276;-79
2022/10/07 10:41:52;;;;;;;;;;;38.20;40.10;;;;;;5073541;28;19909;-76
2022/10/07 10:44:31;;;;;;;;;;;38.80;39.40;;;;;;5073843;28;19916;-78
2022/10/07 10:47:11;;;;;;;;;;;37.10;40.20;;;;;;5073910;28;19909;-79
2022/10/07 10:49:40;;;;;;;;;;;37.30;40.10;;;;;;5073420;28;20396;-77
2022/10/07 10:52:14;;;;;;;;;;;39.00;39.50;;;;;;5073890;28;19916;-76
2022/10/07 10:54:58;;;;;;;;;;;39.90;38.00;;;;;;5074317;28;19913;-77
2022/10/07 10:57:32;;;;;;;;;;;39.40;37.80;;;;;;5073987;28;19915;-78
2022/10/07 11:00:17;;;;;;;;;;;38.40;38.60;;;;;;5072228;28;19921;-78
2022/10/07 11:02:45;;;;;;;;;;;40.20;38.30;;;;;;5067578;28;20003;-76
2022/10/07 11:05:13;;;;;;;;;;;40.60;37.30;;;;;;5069739;28;19913;-79
2022/10/07 11:08:05;;;;;;;;;;;38.90;36.10;;;;;;5072921;28;19909;-77
2022/10/07 11:10:49;;;;;;;;;;;36.10;37.70;;;;;;5067354;28;19915;-77
2022/10/07 11:13:32;;;;;;;;;;;37.50;38.40;;;;;;5069074;28;20285;-78
2022/10/07 11:15:58;;;;;;;;;;;40.30;36.90;;;;;;5069482;28;19923;-78
2022/10/07 11:18:44;;;;;;;;;;;41.50;36.10;;;;;;5073125;28;19908;-81
2022/10/07 11:21:13;;;;;;;;;;;40.80;35.90;;;;;;5067142;28;19909;-79
2022/10/07 11:24:00;;;;;;;;;;;39.80;36.10;;;;;;5072689;28;20441;-77
2022/10/07 11:26:55;;;;;;;;;;;38.50;36.80;;;;;;5067765;28;19915;-74
2022/10/07 11:29:27;;;;;;;;;;;39.10;37.30;;;;;;5061153;28;19915;-76
2022/10/07 11:32:01;;;;;;;;;;;39.60;35.70;;;;;;5062985;28;19909;-74
2022/10/07 11:34:48;;;;;;;;;;;38.80;37.00;;;;;;5070524;28;20295;-76
2022/10/07 11:37:18;;;;;;;;;;;38.70;35.80;;;;;;5077337;28;19915;-76
2022/10/07 11:39:44;;;;;;;;;;;40.90;36.10;;;;;;5070081;28;20377;-74
2022/10/07 11:42:14;;;;;;;;;;;42.90;34.20;;;;;;5072609;28;19934;-74
2022/10/07 11:44:59;;;;;;;;;;;42.00;34.20;;;;;;5072639;28;19958;-75
2022/10/07 11:47:27;;;;;;;;;;;43.10;33.10;;;;;;5073383;28;19908;-73
2022/10/07 11:49:56;;;;;;;;;;;41.90;33.10;;;;;;5072863;28;19928;-76
2022/10/07 11:52:25;;;;;;;;;;;40.70;33.30;;;;;;5073103;28;19908;-78
2022/10/07 11:55:00;;;;;;;;;;;41.20;34.10;;;;;;5076287;28;19916;-75
2022/10/07 11:57:30;;;;;;;;;;;43.90;33.00;;;;;;5076885;28;20433;-74
2022/10/07 11:59:57;;;;;;;;;;;42.10;32.80;;;;;;5076785;28;20323;-77
2022/10/07 12:02:29;;;;;;;;;;;42.70;33.50;;;;;;5075404;28;20284;-75
2022/10/07 12:04:54;;;;;;;;;;;44.10;32.90;;;;;;5092159;28;20292;-77
2022/10/07 12:07:38;;;;;;;;;;;42.90;32.00;;;;;;5076583;28;19916;-75
2022/10/07 12:10:22;;;;;;;;;;;42.30;31.90;;;;;;5076556;28;19916;-77
2022/10/07 12:12:48;;;;;;;;;;;41.20;33.10;;;;;;5076949;28;19995;-77
2022/10/07 12:15:23;;;;;;;;;;;41.20;33.50;;;;;;5076370;28;19912;-78
2022/10/07 12:17:52;;;;;;;;;;;42.40;32.70;;;;;;5076379;28;19908;-75
2022/10/07 12:20:33;;;;;;;;;;;42.50;33.00;;;;;;5076444;28;19908;-75
2022/10/07 12:23:19;;;;;;;;;;;43.90;32.00;;;;;;5076441;28;19957;-75
2022/10/07 12:25:49;;;;;;;;;;;42.20;32.10;;;;;;5062279;28;19919;-76
2022/10/07 12:28:16;;;;;;;;;;;41.30;32.70;;;;;;5076242;28;19908;-74
2022/10/07 12:30:52;;;;;;;;;;;41.00;32.00;;;;;;5076331;28;19909;-75
2022/10/07 12:33:32;;;;;;;;;;;42.50;31.50;;;;;;5076189;28;19916;-79
2022/10/07 12:36:19;;;;;;;;;;;40.60;31.80;;;;;;5076152;28;19912;-76
2022/10/07 12:39:06;;;;;;;;;;;40.50;31.50;;;;;;5076476;28;19915;-75
2022/10/07 12:41:35;;;;;;;;;;;40.30;32.00;;;;;;5074507;28;19991;-74
2022/10/07 12:44:19;;;;;;;;;;;40.80;31.70;;;;;;5075876;28;19913;-76
2022/10/07 12:46:49;;;;;;;;;;;39.30;32.00;;;;;;5076195;28;20009;-78
2022/10/07 12:49:29;;;;;;;;;;;39.70;32.10;;;;;;5075850;28;20399;-76
2022/10/07 12:51:57;;;;;;;;;;;40.90;31.80;;;;;;5076040;28;19970;-77
2022/10/07 12:54:32;;;;;;;;;;;40.70;31.20;;;;;;5076265;28;20327;-76
2022/10/07 12:56:59;;;;;;;;;;;41.40;32.10;;;;;;5075713;28;19912;-74
2022/10/07 12:59:49;;;;;;;;;;;41.20;31.50;;;;;;5075877;28;20373;-76
2022/10/07 13:02:26;;;;;;;;;;;41.20;31.20;;;;;;5075954;28;20271;-77
2022/10/07 13:05:12;;;;;;;;;;;42.30;31.90;;;;;;5074872;28;20011;-74
2022/10/07 13:07:42;;;;;;;;;;;42.70;32.50;;;;;;5060565;28;19913;-76
2022/10/07 13:10:08;;;;;;;;;;;43.80;32.00;;;;;;5075425;28;19913;-78
2022/10/07 13:12:33;;;;;;;;;;;46.10;31.60;;;;;;5075401;28;19909;-76
2022/10/07 13:14:59;;;;;;;;;;;44.60;31.20;;;;;;5075453;28;19940;-74
2022/10/07 13:17:24;;;;;;;;;;;46.70;31.60;;;;;;5075341;28;20369;-76
2022/10/07 13:19:58;;;;;;;;;;;44.10;31.10;;;;;;5075294;28;20364;-74
2022/10/07 13:22:24;;;;;;;;;;;42.10;32.40;;;;;;5075472;28;19955;-76
2022/10/07 13:24:52;;;;;;;;;;;42.50;32.50;;;;;;5075070;28;19971;-74
2022/10/07 13:27:20;;;;;;;;;;;42.40;32.40;;;;;;5075682;28;19919;-74
2022/10/07 13:29:45;;;;;;;;;;;42.50;31.50;;;;;;5075080;28;19951;-74
2022/10/07 13:32:16;;;;;;;;;;;41.20;32.10;;;;;;5075068;28;19966;-75
2022/10/07 13:34:43;;;;;;;;;;;36.80;34.40;;;;;;5074980;28;19908;-74
2022/10/07 13:37:29;;;;;;;;;;;39.70;34.10;;;;;;5075473;28;20384;-74
2022/10/07 13:39:55;;;;;;;;;;;37.60;33.90;;;;;;5074915;28;19909;-74
2022/10/07 13:42:25;;;;;;;;;;;37.70;35.20;;;;;;5074780;28;19966;-77
2022/10/07 13:44:51;;;;;;;;;;;39.40;34.30;;;;;;5074551;28;20281;-74
2022/10/07 13:47:18;;;;;;;;;;;42.10;32.70;;;;;;5075143;28;19909;-73
2022/10/07 13:49:46;;;;;;;;;;;42.10;32.50;;;;;;5074284;28;19927;-76
2022/10/07 13:52:19;;;;;;;;;;;43.80;32.20;;;;;;5074622;28;19946;-74
2022/10/07 13:54:51;;;;;;;;;;;42.90;31.60;;;;;;5074352;28;20364;-74
2022/10/07 13:57:18;;;;;;;;;;;40.50;31.90;;;;;;5074554;28;19908;-77
2022/10/07 13:59:44;;;;;;;;;;;38.60;33.50;;;;;;5074855;28;20026;-76
2022/10/07 14:02:15;;;;;;;;;;;38.90;33.20;;;;;;5074647;28;20373;-79
2022/10/07 14:05:00;;;;;;;;;;;39.20;33.70;;;;;;5074767;28;19927;-77
2022/10/07 14:07:27;;;;;;;;;;;39.30;33.40;;;;;;5074491;28;19909;-77
2022/10/07 14:09:58;;;;;;;;;;;37.60;32.70;;;;;;5074449;28;19908;-77
2022/10/07 14:12:26;;;;;;;;;;;37.10;34.00;;;;;;5074199;28;19909;-78
2022/10/07 14:14:54;;;;;;;;;;;37.70;33.40;;;;;;5074271;28;19909;-78
2022/10/07 14:17:27;;;;;;;;;;;38.70;32.40;;;;;;5073265;28;19916;-77
2022/10/07 14:19:54;;;;;;;;;;;37.40;32.20;;;;;;5074252;28;20308;-76
2022/10/07 14:22:25;;;;;;;;;;;35.70;33.00;;;;;;5074213;28;20321;-77
2022/10/07 14:24:52;;;;;;;;;;;35.80;33.60;;;;;;5074227;28;19913;-78
2022/10/07 14:27:36;;;;;;;;;;;36.60;33.60;;;;;;5074029;28;20388;-76
2022/10/07 14:30:02;;;;;;;;;;;36.30;33.60;;;;;;5073962;28;19909;-75
2022/10/07 14:35:19;;;;;;;;;;;38.00;32.50;;;;;;5073753;28;19955;-75
2022/10/07 14:37:48;;;;;;;;;;;38.30;32.20;;;;;;5074873;28;19908;-75
2022/10/07 14:40:22;;;;;;;;;;;37.30;32.50;;;;;;5073805;28;19909;-76
2022/10/07 14:42:51;;;;;;;;;;;37.70;32.60;;;;;;5073842;28;20296;-77
2022/10/07 14:45:17;;;;;;;;;;;37.90;32.10;;;;;;5073760;28;19935;-79